首页
METAR-TAF:

METAR-TAF

机场 :

列日机场

列日, 比利时

纬度: 50-39N, 经度: 005-27E, 海拔: 186米

当前天气观测

该预报发布于22分钟前的02:50 UTC
风速7节,风向东南
温度 2°C
湿度 87%
气压 1010 hPa
能见度10公里或以上
1500米以下无云,无积雨云

METAR: EBLG 170250Z 14007KT CAVOK 02/M00 Q1010 NOSIG

时间: 04:12 (03:12 UTC)

预报

该预报发布于4小时和4分钟前的23:08 UTC
预报有效从17日的 00点(UTC)到 18日的 06点(UTC)
风速6节,风向南转南东
能见度10公里或以上
少量云层高于3000英尺
短暂存在
从 17日的 01点(UTC)到 17日的 10点(UTC)
能見度: 3000
轻雾
几率 40% :
短暂存在
从 17日的 03点(UTC)到 17日的 09点(UTC)
能見度: 0200
多云层高于100英尺
冻雾
短暂存在
从 17日的 19点(UTC)到 18日的 06点(UTC)
能見度: 3800
多云层高于500英尺
雨, 雨, 毛毛雨
成为
从 17日的 22点(UTC)到 17日的 24点(UTC)
风速10节,风向北转西北

TAF: EBLG 162308Z 1700/1806 16006KT 9999 FEW030 TEMPO 1701/1710 3000 BR PROB40 TEMPO 1703/1709 0200 FZFG BKN001 TEMPO 1719/1806 3800 RA RADZ BKN005 BECMG 1722/1724 34010KT

超过4000个机场的气象观测和天气预报(METAR&TAF报告)。

可查询的气象台以黄色和红色小点在地图上表示。

将鼠标移到小点上方,可查看气象台名称。

然后点击查看天气观测和预报。

如需切换地图:点击带黑十字的绿色按钮放大地图;点击带横线的绿色按钮缩小地图;或者点击绿色箭头查看邻近地区的地图。


METAR-TAF: